Mount Olive, North Carolina
Current Conditions -  °F | °C
As of 1:58 PM on Tuesday 21 Oct 2014 (Local Time) from KGSB Reporting Station
Clear Clear  
Wind Chill: 74°   Ceiling: Unl
Heat Index: 74°   Visibility: 10mi
Dew Point: 57°   Wind: 0mph
Humidity: 54%   Direction: NA
Pressure: 29.83"   Gusts: NA
Location:  35.2°N, 78.07°W
Report Text: KGSB 211758Z AUTO 00000KT 10SM CLR 23/14 A2983 RMK AO2 SLP104 T02340137 10235 20120 57023 $
Loading
Personal Weather Stations






























Interactive Weather Map
Tropical Storm Tracking
New forecast layout! Learn more

10-Day Weather Forecast

Advertisements
Track Severe Weather on mobile